Time;durP1;ratioP1;P1;durP2;ratioP2;P2;SDS_P1;SDS_P2;PMS_P1;PMS_P2;Temp;Humidity;BMP_temperature;BMP_pressure;BME280_temperature;BME280_humidity;BME280_pressure;Samples;Min_cycle;Max_cycle;Signal;HPM_P1;HPM_P2
2023/08/17 00:01:41;;;;;;;3.25;2.50;;;23.90;60.70;;;;;;5061531;28;20047;-63
2023/08/17 00:04:07;;;;;;;4.93;2.65;;;23.80;60.60;;;;;;5055911;28;20071;-62
2023/08/17 00:06:32;;;;;;;2.50;2.30;;;23.80;60.60;;;;;;5062894;28;20483;-62
2023/08/17 00:08:58;;;;;;;3.47;2.38;;;23.70;60.60;;;;;;5062942;28;20044;-63
2023/08/17 00:11:23;;;;;;;6.68;2.75;;;23.70;60.70;;;;;;5059535;28;20048;-62
2023/08/17 00:13:49;;;;;;;4.10;2.65;;;23.70;60.70;;;;;;5059439;28;20044;-63
2023/08/17 00:16:15;;;;;;;4.97;2.90;;;23.60;61.10;;;;;;5056862;28;20418;-63
2023/08/17 00:18:41;;;;;;;5.20;2.90;;;23.70;61.30;;;;;;5058706;28;20029;-63
2023/08/17 00:21:07;;;;;;;4.30;2.58;;;23.60;61.20;;;;;;5059923;28;20050;-63
2023/08/17 00:23:33;;;;;;;3.83;2.60;;;23.60;61.20;;;;;;5054157;28;20052;-63
2023/08/17 00:25:59;;;;;;;3.58;2.75;;;23.60;61.40;;;;;;5056179;28;20091;-62
2023/08/17 00:28:24;;;;;;;3.03;2.40;;;23.50;61.70;;;;;;4974812;28;20459;-62
2023/08/17 00:30:51;;;;;;;4.10;3.00;;;23.50;61.90;;;;;;5067503;28;20032;-63
2023/08/17 00:33:16;;;;;;;3.55;2.70;;;23.50;61.80;;;;;;5062485;28;20021;-64
2023/08/17 00:35:42;;;;;;;6.53;2.80;;;23.40;61.70;;;;;;5063149;28;20047;-63
2023/08/17 00:38:08;;;;;;;6.22;2.95;;;23.40;62.10;;;;;;5071083;28;20032;-63
2023/08/17 00:40:34;;;;;;;4.72;3.00;;;23.40;62.40;;;;;;5069189;28;20357;-63
2023/08/17 00:43:00;;;;;;;3.03;2.40;;;23.30;62.60;;;;;;5069870;28;20413;-63
2023/08/17 00:45:26;;;;;;;6.15;2.80;;;23.30;62.40;;;;;;5072425;28;20024;-63
2023/08/17 00:47:55;;;;;;;4.45;2.97;;;23.30;62.30;;;;;;5062348;28;20574;-63
2023/08/17 00:50:22;;;;;;;7.00;3.28;;;23.20;62.40;;;;;;5055259;28;20373;-63
2023/08/17 00:52:47;;;;;;;5.50;3.00;;;23.20;62.30;;;;;;5060919;28;20037;-65
2023/08/17 00:55:13;;;;;;;4.82;2.47;;;23.20;62.50;;;;;;5066383;28;20024;-63
2023/08/17 00:57:41;;;;;;;5.18;3.30;;;23.10;62.50;;;;;;5062170;28;20036;-64
2023/08/17 01:00:09;;;;;;;6.90;2.80;;;23.10;62.60;;;;;;5058724;28;20041;-62
2023/08/17 01:02:35;;;;;;;8.57;3.08;;;23.00;62.80;;;;;;5062756;28;20506;-62
2023/08/17 01:05:01;;;;;;;5.28;2.67;;;23.00;62.90;;;;;;5054911;28;20051;-63
2023/08/17 01:07:27;;;;;;;3.95;2.80;;;23.00;63.10;;;;;;5064513;28;20043;-62
2023/08/17 01:09:53;;;;;;;3.58;2.83;;;23.00;63.30;;;;;;5065154;28;20427;-63
2023/08/17 01:12:39;;;;;;;4.68;2.67;;;23.00;63.50;;;;;;5068279;28;20028;-62
2023/08/17 01:15:14;;;;;;;4.88;2.85;;;22.90;64.50;;;;;;5057313;28;20044;-64
2023/08/17 01:17:46;;;;;;;4.28;2.63;;;22.90;64.30;;;;;;5056174;28;20097;-64
2023/08/17 01:20:15;;;;;;;5.55;3.00;;;22.90;63.60;;;;;;5056244;28;20025;-63
2023/08/17 01:22:42;;;;;;;4.45;2.70;;;22.90;63.60;;;;;;5065283;28;20020;-62
2023/08/17 01:25:08;;;;;;;2.78;2.50;;;22.90;63.50;;;;;;5065096;28;20037;-62
2023/08/17 01:27:40;;;;;;;3.38;2.72;;;22.80;63.60;;;;;;4965301;28;20066;-62
2023/08/17 01:30:07;;;;;;;6.68;2.60;;;22.80;64.00;;;;;;5065341;28;20035;-63
2023/08/17 01:32:57;;;;;;;5.97;3.42;;;22.70;63.90;;;;;;5056798;28;20060;-62
2023/08/17 01:35:39;;;;;;;4.25;2.65;;;22.70;63.90;;;;;;5061641;28;20601;-63
2023/08/17 01:38:09;;;;;;;8.70;3.47;;;22.70;64.70;;;;;;5061235;28;20064;-64
2023/08/17 01:40:35;;;;;;;5.05;2.42;;;22.70;64.00;;;;;;5062675;28;20418;-63
2023/08/17 01:43:04;;;;;;;3.95;2.50;;;22.70;63.90;;;;;;5068658;28;20035;-63
2023/08/17 01:45:30;;;;;;;7.53;2.70;;;22.60;64.10;;;;;;5061316;28;20040;-63
2023/08/17 01:47:56;;;;;;;4.38;2.55;;;22.60;63.90;;;;;;5067905;28;20028;-63
2023/08/17 01:50:22;;;;;;;7.32;3.70;;;22.60;64.00;;;;;;5067316;28;20047;-62
2023/08/17 01:52:47;;;;;;;4.28;2.50;;;22.60;64.20;;;;;;5068194;28;20020;-62
2023/08/17 01:55:13;;;;;;;2.85;2.58;;;22.60;64.30;;;;;;5066894;28;20043;-63
2023/08/17 01:57:39;;;;;;;4.82;3.60;;;22.60;64.40;;;;;;5065924;28;20154;-63
2023/08/17 02:00:05;;;;;;;4.60;2.92;;;22.50;64.40;;;;;;5064969;28;20100;-64
2023/08/17 02:02:31;;;;;;;4.47;2.47;;;22.50;64.60;;;;;;5062687;28;20021;-62
2023/08/17 02:04:57;;;;;;;6.03;2.90;;;22.50;64.60;;;;;;5068174;28;20020;-63
2023/08/17 02:07:22;;;;;;;3.75;2.53;;;22.50;64.70;;;;;;5069916;28;20145;-64
2023/08/17 02:09:48;;;;;;;4.45;3.00;;;22.50;64.70;;;;;;5069828;28;20091;-63
2023/08/17 02:12:14;;;;;;;9.57;3.15;;;22.40;64.70;;;;;;5066586;28;20025;-62
2023/08/17 02:14:39;;;;;;;7.07;2.95;;;22.40;64.90;;;;;;5058774;28;20109;-62
2023/08/17 02:17:05;;;;;;;6.13;2.80;;;22.40;65.00;;;;;;5068764;28;20047;-62
2023/08/17 02:19:32;;;;;;;3.72;2.92;;;22.40;65.20;;;;;;5060966;28;20032;-64
2023/08/17 02:21:59;;;;;;;8.23;3.08;;;22.40;65.30;;;;;;5067293;28;20371;-64
2023/08/17 02:24:25;;;;;;;5.10;2.70;;;22.30;65.30;;;;;;5070010;28;20653;-63
2023/08/17 02:26:50;;;;;;;4.85;2.65;;;22.30;65.40;;;;;;5065934;28;20026;-63
2023/08/17 02:29:16;;;;;;;6.20;3.05;;;22.30;65.50;;;;;;4948883;28;21553;-63
2023/08/17 02:31:41;;;;;;;11.57;3.50;;;22.30;65.70;;;;;;5059893;28;20032;-63
2023/08/17 02:34:07;;;;;;;7.03;3.22;;;22.30;65.70;;;;;;5066156;28;20069;-63
2023/08/17 02:36:33;;;;;;;4.75;3.05;;;22.20;65.70;;;;;;5057688;28;20044;-64
2023/08/17 02:38:59;;;;;;;6.70;3.28;;;22.20;65.90;;;;;;5066841;28;20021;-62
2023/08/17 02:41:24;;;;;;;6.40;3.40;;;22.20;66.00;;;;;;5065387;28;20028;-63
2023/08/17 02:43:50;;;;;;;8.88;3.20;;;22.10;66.10;;;;;;5064744;28;20020;-62
2023/08/17 02:46:16;;;;;;;5.53;2.70;;;22.10;66.20;;;;;;5064648;28;20119;-62
2023/08/17 02:48:41;;;;;;;4.80;3.05;;;22.10;66.40;;;;;;5062029;28;20115;-62
2023/08/17 02:51:07;;;;;;;3.63;2.78;;;22.10;66.50;;;;;;5054636;28;20072;-62
2023/08/17 02:53:33;;;;;;;4.22;2.92;;;22.00;66.60;;;;;;5058508;28;20036;-63
2023/08/17 02:55:58;;;;;;;7.05;3.20;;;22.00;66.60;;;;;;5066911;28;20074;-63
2023/08/17 02:58:24;;;;;;;7.47;3.20;;;22.00;66.70;;;;;;5061810;28;20095;-62
2023/08/17 03:00:53;;;;;;;10.15;3.63;;;22.00;66.70;;;;;;5058607;28;20032;-63
2023/08/17 03:03:19;;;;;;;4.03;2.85;;;22.00;67.20;;;;;;5064419;28;20052;-63
2023/08/17 03:05:45;;;;;;;3.42;2.70;;;22.00;66.90;;;;;;5063173;28;20055;-62
2023/08/17 03:08:10;;;;;;;5.60;2.75;;;21.90;66.90;;;;;;5065054;28;20380;-62
2023/08/17 03:10:37;;;;;;;5.35;2.70;;;21.90;67.00;;;;;;5065176;28;20437;-62
2023/08/17 03:13:03;;;;;;;5.72;3.08;;;21.90;67.20;;;;;;5059801;28;20020;-63
2023/08/17 03:15:29;;;;;;;3.40;2.92;;;21.90;67.20;;;;;;5063172;28;20407;-62
2023/08/17 03:17:55;;;;;;;4.60;2.80;;;21.90;67.20;;;;;;5061482;28;20410;-62
2023/08/17 03:20:20;;;;;;;7.88;2.72;;;21.80;67.20;;;;;;5058506;28;20029;-62
2023/08/17 03:22:46;;;;;;;5.75;2.92;;;21.80;67.40;;;;;;5069132;28;20505;-62
2023/08/17 03:25:12;;;;;;;3.30;3.00;;;21.80;68.10;;;;;;5060614;28;20627;-63
2023/08/17 03:27:37;;;;;;;5.68;3.10;;;21.70;67.50;;;;;;5064026;28;20039;-63
2023/08/17 03:30:04;;;;;;;4.10;3.00;;;21.70;67.60;;;;;;5066493;28;20029;-63
2023/08/17 03:32:30;;;;;;;6.80;3.42;;;21.70;67.70;;;;;;5065038;28;20139;-62
2023/08/17 03:34:56;;;;;;;6.28;3.20;;;21.70;67.70;;;;;;5065652;28;20120;-63
2023/08/17 03:37:22;;;;;;;5.78;3.40;;;21.70;67.80;;;;;;5063557;28;20036;-63
2023/08/17 03:39:47;;;;;;;3.72;3.05;;;21.70;67.80;;;;;;5067511;28;20024;-63
2023/08/17 03:42:13;;;;;;;4.90;2.90;;;21.70;67.80;;;;;;5062979;28;20391;-63
2023/08/17 03:44:38;;;;;;;6.10;3.20;;;21.70;67.80;;;;;;5066071;28;20420;-63
2023/08/17 03:47:04;;;;;;;4.40;2.78;;;21.60;67.80;;;;;;5062475;28;20028;-63
2023/08/17 03:49:30;;;;;;;4.38;2.75;;;21.60;67.90;;;;;;5070697;28;20083;-63
2023/08/17 03:51:55;;;;;;;4.30;2.85;;;21.60;67.90;;;;;;5066664;28;20026;-63
2023/08/17 03:54:21;;;;;;;9.38;3.38;;;21.60;67.90;;;;;;5063480;28;20025;-63
2023/08/17 03:56:47;;;;;;;3.20;2.80;;;21.50;68.00;;;;;;5064877;28;20040;-63
2023/08/17 03:59:13;;;;;;;5.25;2.80;;;21.50;67.90;;;;;;5061611;28;20024;-63
2023/08/17 04:01:39;;;;;;;4.53;2.88;;;21.50;67.90;;;;;;5062199;28;20447;-63
2023/08/17 04:04:05;;;;;;;5.10;3.13;;;21.50;67.80;;;;;;5060610;28;20063;-62
2023/08/17 04:06:30;;;;;;;8.52;3.38;;;21.50;67.80;;;;;;5059189;28;20071;-62
2023/08/17 04:08:56;;;;;;;5.32;3.75;;;21.40;67.70;;;;;;5067162;28;20058;-63
2023/08/17 04:11:22;;;;;;;7.15;3.67;;;21.40;67.70;;;;;;5064281;28;20039;-63
2023/08/17 04:13:47;;;;;;;5.15;4.15;;;21.40;67.70;;;;;;5072191;28;20414;-63
2023/08/17 04:16:13;;;;;;;7.40;4.68;;;21.40;67.80;;;;;;5061517;28;20089;-61
2023/08/17 04:18:38;;;;;;;5.95;4.53;;;21.40;67.80;;;;;;5062139;28;20108;-62
2023/08/17 04:21:04;;;;;;;8.40;4.70;;;21.30;67.80;;;;;;5062836;28;20047;-63
2023/08/17 04:23:30;;;;;;;5.32;3.65;;;21.30;67.80;;;;;;5062086;28;20114;-62
2023/08/17 04:25:55;;;;;;;5.53;3.70;;;21.30;67.90;;;;;;5062663;28;20069;-62
2023/08/17 04:28:21;;;;;;;5.13;3.90;;;21.30;68.00;;;;;;4978696;28;20020;-62
2023/08/17 04:30:47;;;;;;;10.50;4.15;;;21.30;68.20;;;;;;5056351;28;20551;-62
2023/08/17 04:33:12;;;;;;;5.13;3.67;;;21.30;68.30;;;;;;5062191;28;20081;-62
2023/08/17 04:35:39;;;;;;;6.00;3.55;;;21.30;68.20;;;;;;5062459;28;20119;-62
2023/08/17 04:38:04;;;;;;;5.38;3.88;;;21.20;68.20;;;;;;5055838;28;20115;-62
2023/08/17 04:40:31;;;;;;;4.28;3.88;;;21.20;68.10;;;;;;5070324;28;20115;-62
2023/08/17 04:42:56;;;;;;;8.60;4.63;;;21.20;68.10;;;;;;5060403;28;20664;-62
2023/08/17 04:45:23;;;;;;;6.25;4.72;;;21.20;68.10;;;;;;5055654;28;20086;-62
2023/08/17 04:47:49;;;;;;;7.18;5.28;;;21.20;68.10;;;;;;5066836;28;20035;-62
2023/08/17 04:50:16;;;;;;;9.57;5.63;;;21.20;68.20;;;;;;5061632;28;20078;-62
2023/08/17 04:52:45;;;;;;;8.15;5.63;;;21.20;68.30;;;;;;5069113;28;20028;-62
2023/08/17 04:55:13;;;;;;;8.63;5.30;;;21.20;68.60;;;;;;5062273;28;20020;-64
2023/08/17 04:57:39;;;;;;;6.63;5.20;;;21.20;68.80;;;;;;5064932;28;20086;-62
2023/08/17 05:00:08;;;;;;;9.10;5.35;;;21.20;68.90;;;;;;5067030;28;20420;-62
2023/08/17 05:02:35;;;;;;;6.70;4.95;;;21.20;68.90;;;;;;5061234;28;20039;-63
2023/08/17 05:05:03;;;;;;;9.60;5.35;;;21.30;69.00;;;;;;5058822;28;20051;-62
2023/08/17 05:07:29;;;;;;;5.97;4.65;;;21.30;69.20;;;;;;5069135;28;20013;-62
2023/08/17 05:09:55;;;;;;;6.40;4.28;;;21.30;68.80;;;;;;5063123;28;20071;-63
2023/08/17 05:12:20;;;;;;;6.80;4.03;;;21.40;68.90;;;;;;5071748;28;20750;-62
2023/08/17 05:14:46;;;;;;;4.43;3.40;;;21.40;68.80;;;;;;5065759;28;20039;-62
2023/08/17 05:17:11;;;;;;;5.22;3.35;;;21.50;68.90;;;;;;5066464;28;20051;-62
2023/08/17 05:19:39;;;;;;;9.30;3.40;;;21.50;68.80;;;;;;5061834;28;20127;-61
2023/08/17 05:22:05;;;;;;;10.25;3.50;;;21.60;68.90;;;;;;5071322;28;20097;-62
2023/08/17 05:24:31;;;;;;;8.40;3.55;;;21.60;69.00;;;;;;5066070;28;20095;-62
2023/08/17 05:26:57;;;;;;;5.70;3.17;;;21.70;69.10;;;;;;5064667;28;20037;-63
2023/08/17 05:29:23;;;;;;;6.38;3.40;;;21.70;69.00;;;;;;5059775;28;20051;-62
2023/08/17 05:31:49;;;;;;;5.95;3.60;;;21.80;68.90;;;;;;5064297;28;20033;-62
2023/08/17 05:34:14;;;;;;;6.60;3.50;;;21.80;68.80;;;;;;5069071;28;20025;-62
2023/08/17 05:36:41;;;;;;;7.90;3.55;;;21.90;68.80;;;;;;5066074;28;20036;-63
2023/08/17 05:39:06;;;;;;;4.95;3.42;;;22.00;68.70;;;;;;5066545;28;20479;-62
2023/08/17 05:41:32;;;;;;;6.13;3.38;;;22.10;68.80;;;;;;5068882;28;20135;-62
2023/08/17 05:43:58;;;;;;;10.02;3.92;;;22.20;68.70;;;;;;5070267;28;20025;-63
2023/08/17 05:46:24;;;;;;;4.35;3.78;;;22.20;68.60;;;;;;5063685;28;20067;-63
2023/08/17 05:48:49;;;;;;;4.85;3.53;;;22.30;68.50;;;;;;5065348;28;20052;-62
2023/08/17 05:51:15;;;;;;;5.13;3.40;;;22.40;68.60;;;;;;5068806;28;20025;-63
2023/08/17 05:53:41;;;;;;;4.25;3.80;;;22.50;68.50;;;;;;5064962;28;21323;-63
2023/08/17 05:56:07;;;;;;;7.32;3.67;;;22.60;68.40;;;;;;5052787;28;20032;-62
2023/08/17 05:58:32;;;;;;;9.55;4.85;;;22.70;68.50;;;;;;5065282;28;20020;-63
2023/08/17 06:01:08;;;;;;;7.22;3.25;;;22.70;68.30;;;;;;5064071;28;20143;-62
2023/08/17 06:03:35;;;;;;;8.55;3.20;;;22.80;68.40;;;;;;5061575;28;20067;-62
2023/08/17 06:06:01;;;;;;;6.43;3.72;;;23.00;68.10;;;;;;5058716;28;20047;-62
2023/08/17 06:08:27;;;;;;;7.70;3.72;;;23.00;68.00;;;;;;5067319;28;20475;-63
2023/08/17 06:10:53;;;;;;;8.45;3.28;;;23.10;67.80;;;;;;5067472;28;20035;-63
2023/08/17 06:13:18;;;;;;;8.45;3.33;;;23.20;67.60;;;;;;5061486;28;20054;-63
2023/08/17 06:15:44;;;;;;;5.78;3.38;;;23.30;67.40;;;;;;5064261;28;20028;-63
2023/08/17 06:18:10;;;;;;;9.65;3.58;;;23.40;67.20;;;;;;5064274;28;20036;-63
2023/08/17 06:20:35;;;;;;;7.00;3.40;;;23.50;67.00;;;;;;5074484;28;20379;-63
2023/08/17 06:23:01;;;;;;;8.77;3.53;;;23.50;66.80;;;;;;5064101;28;20480;-63
2023/08/17 06:25:26;;;;;;;10.23;3.53;;;23.60;66.80;;;;;;5064345;28;20104;-63
2023/08/17 06:27:52;;;;;;;6.05;3.22;;;23.80;66.80;;;;;;5078490;28;20025;-63
2023/08/17 06:30:18;;;;;;;5.35;3.20;;;23.80;66.60;;;;;;5072650;28;20032;-62
2023/08/17 06:32:44;;;;;;;10.32;3.60;;;24.00;66.40;;;;;;5059761;28;20036;-62
2023/08/17 06:35:10;;;;;;;8.30;4.40;;;24.10;66.30;;;;;;5059592;28;20402;-62
2023/08/17 06:37:36;;;;;;;8.02;4.13;;;24.20;65.90;;;;;;5058395;28;20149;-62
2023/08/17 06:40:05;;;;;;;7.15;4.47;;;24.30;65.90;;;;;;5061119;28;20379;-62
2023/08/17 06:42:31;;;;;;;7.63;5.15;;;24.40;65.60;;;;;;5065526;28;20475;-62
2023/08/17 06:44:57;;;;;;;5.28;4.70;;;24.50;65.30;;;;;;5064012;28;20078;-62
2023/08/17 06:47:23;;;;;;;9.35;5.57;;;24.60;64.90;;;;;;5056246;28;20380;-62
2023/08/17 06:49:49;;;;;;;10.48;4.90;;;24.70;64.70;;;;;;5068129;28;20371;-63
2023/08/17 06:52:14;;;;;;;7.63;5.50;;;24.80;64.40;;;;;;5062876;28;20550;-63
2023/08/17 06:54:40;;;;;;;10.82;4.72;;;24.90;64.40;;;;;;5071206;28;20139;-63
2023/08/17 06:57:06;;;;;;;9.52;5.20;;;25.00;64.00;;;;;;5064371;28;20040;-62
2023/08/17 06:59:33;;;;;;;8.63;4.88;;;25.10;63.90;;;;;;5065866;28;20024;-62
2023/08/17 07:01:59;;;;;;;9.77;5.38;;;25.30;63.90;;;;;;5066465;28;20391;-62
2023/08/17 07:04:25;;;;;;;8.32;5.68;;;25.40;63.70;;;;;;5062481;28;20024;-63
2023/08/17 07:06:51;;;;;;;9.82;5.57;;;25.50;63.50;;;;;;5061275;28;20386;-62
2023/08/17 07:09:16;;;;;;;7.47;5.10;;;25.60;63.30;;;;;;5066642;28;20699;-62
2023/08/17 07:11:42;;;;;;;7.90;5.50;;;25.70;63.30;;;;;;5061714;28;20359;-62
2023/08/17 07:14:08;;;;;;;7.93;5.90;;;25.80;62.90;;;;;;5069692;28;20024;-62
2023/08/17 07:16:33;;;;;;;8.38;5.47;;;25.90;62.90;;;;;;5065817;28;20112;-62
2023/08/17 07:18:59;;;;;;;7.50;5.30;;;26.00;62.80;;;;;;5062635;28;20056;-62
2023/08/17 07:21:25;;;;;;;6.15;5.22;;;26.20;62.90;;;;;;5062587;28;20074;-62
2023/08/17 07:23:54;;;;;;;6.63;5.55;;;26.30;62.40;;;;;;5061002;28;20067;-62
2023/08/17 07:26:20;;;;;;;7.85;5.45;;;26.40;61.90;;;;;;5068860;28;20055;-63
2023/08/17 07:28:46;;;;;;;9.13;5.80;;;26.50;61.80;;;;;;5001841;28;20116;-62
2023/08/17 07:31:12;;;;;;;7.43;5.40;;;26.60;62.10;;;;;;5062562;28;20407;-63
2023/08/17 07:33:38;;;;;;;7.55;6.22;;;26.70;61.60;;;;;;5063999;28;20036;-62
2023/08/17 07:36:04;;;;;;;11.05;5.88;;;26.90;61.30;;;;;;5059686;28;20040;-62
2023/08/17 07:38:30;;;;;;;10.20;6.00;;;27.00;61.00;;;;;;5063798;28;20036;-62
2023/08/17 07:40:56;;;;;;;6.22;5.43;;;27.10;60.70;;;;;;5062593;28;20029;-63
2023/08/17 07:43:21;;;;;;;10.55;5.70;;;27.20;60.40;;;;;;5059184;28;20119;-63
2023/08/17 07:45:57;;;;;;;8.38;6.40;;;27.30;60.00;;;;;;5063515;28;20033;-62
2023/08/17 07:48:23;;;;;;;7.13;6.00;;;27.40;59.50;;;;;;5067540;28;20029;-63
2023/08/17 07:50:50;;;;;;;7.80;5.53;;;27.50;59.80;;;;;;5067248;28;20025;-62
2023/08/17 07:53:16;;;;;;;9.82;5.75;;;27.50;59.80;;;;;;5060963;28;20119;-62
2023/08/17 07:55:42;;;;;;;10.65;6.00;;;27.60;60.10;;;;;;5063742;28;20036;-63
2023/08/17 07:58:08;;;;;;;9.27;5.85;;;27.70;60.00;;;;;;5060518;28;20044;-61
2023/08/17 08:00:34;;;;;;;8.68;6.00;;;27.80;59.80;;;;;;5067053;28;20360;-63
2023/08/17 08:03:00;;;;;;;7.93;6.07;;;27.90;59.80;;;;;;5064559;28;20035;-63
2023/08/17 08:05:26;;;;;;;7.65;6.22;;;28.00;59.50;;;;;;5061706;28;20036;-62
2023/08/17 08:07:52;;;;;;;10.18;5.88;;;28.10;59.20;;;;;;5062525;28;20090;-62
2023/08/17 08:10:18;;;;;;;7.85;5.93;;;28.20;59.10;;;;;;5060214;28;20044;-62
2023/08/17 08:12:44;;;;;;;17.65;6.63;;;28.30;58.70;;;;;;5067825;28;20074;-62
2023/08/17 08:15:10;;;;;;;10.60;5.95;;;28.40;58.50;;;;;;5066864;28;20025;-62
2023/08/17 08:17:35;;;;;;;7.13;5.10;;;28.60;58.10;;;;;;5061576;28;20482;-63
2023/08/17 08:20:02;;;;;;;7.60;6.18;;;28.60;58.10;;;;;;5069938;28;20092;-63
2023/08/17 08:22:28;;;;;;;6.97;5.90;;;28.70;57.90;;;;;;5058107;28;20100;-63
2023/08/17 08:24:53;;;;;;;8.80;5.97;;;28.80;58.00;;;;;;5069755;28;20103;-63
2023/08/17 08:27:27;;;;;;;8.27;6.55;;;28.90;57.70;;;;;;5027515;28;20036;-64
2023/08/17 08:29:53;;;;;;;10.38;5.97;;;28.90;57.30;;;;;;5061758;28;20044;-62
2023/08/17 08:32:18;;;;;;;7.55;5.90;;;29.00;57.50;;;;;;5065118;28;20066;-62
2023/08/17 08:34:44;;;;;;;8.00;6.07;;;29.00;57.10;;;;;;5063833;28;20029;-63
2023/08/17 08:37:10;;;;;;;11.57;6.80;;;29.10;57.30;;;;;;5062231;28;20071;-63
2023/08/17 08:39:50;;;;;;;7.40;5.53;;;29.10;57.30;;;;;;5065056;28;20048;-62
2023/08/17 08:42:17;;;;;;;14.38;6.32;;;29.20;56.80;;;;;;5064838;28;21440;-62
2023/08/17 08:44:43;;;;;;;7.10;6.15;;;29.20;56.80;;;;;;5067372;28;20027;-62
2023/08/17 08:47:10;;;;;;;7.18;6.18;;;29.30;57.00;;;;;;5067168;28;20135;-62
2023/08/17 08:49:39;;;;;;;10.73;5.72;;;29.30;56.90;;;;;;5071751;28;20099;-62
2023/08/17 08:52:08;;;;;;;11.27;5.90;;;29.50;56.90;;;;;;5066288;28;20070;-62
2023/08/17 08:54:36;;;;;;;9.52;6.07;;;29.60;56.70;;;;;;5059883;28;20070;-63
2023/08/17 08:57:06;;;;;;;11.82;6.57;;;29.60;56.20;;;;;;5068570;28;20092;-63
2023/08/17 08:59:33;;;;;;;9.93;6.00;;;29.70;55.90;;;;;;5066769;28;20040;-63
2023/08/17 09:01:59;;;;;;;8.95;5.68;;;29.80;56.30;;;;;;5063925;28;20070;-62
2023/08/17 09:04:25;;;;;;;10.10;6.28;;;29.90;56.50;;;;;;5066364;28;20503;-62
2023/08/17 09:06:52;;;;;;;7.07;5.03;;;30.00;55.80;;;;;;5066064;28;20103;-61
2023/08/17 09:09:19;;;;;;;9.93;4.70;;;30.10;55.80;;;;;;5072494;28;20107;-63
2023/08/17 09:11:45;;;;;;;7.18;4.65;;;30.20;55.40;;;;;;5070532;28;20021;-62
2023/08/17 09:14:11;;;;;;;6.35;4.53;;;30.20;55.10;;;;;;5068266;28;20108;-62
2023/08/17 09:16:37;;;;;;;13.48;4.88;;;30.30;54.40;;;;;;5057249;28;20033;-62
2023/08/17 09:19:03;;;;;;;4.90;4.40;;;30.30;54.20;;;;;;5064742;28;20013;-62
2023/08/17 09:21:32;;;;;;;6.57;4.70;;;30.30;54.20;;;;;;5060513;28;20028;-63
2023/08/17 09:23:57;;;;;;;10.43;4.65;;;30.30;54.20;;;;;;5071023;28;20138;-63
2023/08/17 09:26:23;;;;;;;8.52;4.97;;;30.40;54.30;;;;;;5064124;28;20479;-63
2023/08/17 09:28:54;;;;;;;9.15;4.78;;;30.50;54.10;;;;;;4996745;28;20025;-62
2023/08/17 09:31:24;;;;;;;8.13;5.70;;;30.50;53.90;;;;;;5067196;28;20032;-63
2023/08/17 09:33:50;;;;;;;8.10;4.72;;;30.60;53.40;;;;;;5053803;28;20025;-63
2023/08/17 09:36:24;;;;;;;11.05;4.72;;;30.60;53.80;;;;;;5056587;28;20028;-62
2023/08/17 09:38:50;;;;;;;5.13;4.20;;;30.70;53.20;;;;;;5065983;28;20138;-63
2023/08/17 09:41:18;;;;;;;8.52;4.47;;;30.70;53.40;;;;;;5062815;28;20041;-62
2023/08/17 09:43:44;;;;;;;5.28;4.35;;;30.70;52.90;;;;;;5063878;28;20028;-63
2023/08/17 09:46:10;;;;;;;6.82;4.22;;;30.80;53.20;;;;;;5061667;28;20471;-64
2023/08/17 09:48:36;;;;;;;6.22;4.22;;;30.80;52.90;;;;;;5060184;28;20029;-64
2023/08/17 09:51:02;;;;;;;5.43;4.15;;;30.80;52.80;;;;;;5061673;28;20029;-63
2023/08/17 09:53:28;;;;;;;4.40;3.70;;;30.80;52.90;;;;;;5060733;28;20036;-63
2023/08/17 09:55:55;;;;;;;9.80;4.15;;;30.90;52.40;;;;;;5068040;28;20033;-63
2023/08/17 09:58:21;;;;;;;5.60;4.10;;;30.90;52.30;;;;;;5068409;28;20056;-63
2023/08/17 10:00:49;;;;;;;6.28;4.00;;;30.90;52.60;;;;;;5065721;28;20035;-63
2023/08/17 10:03:16;;;;;;;6.50;3.90;;;31.00;52.30;;;;;;5069574;28;20020;-62
2023/08/17 10:05:51;;;;;;;5.55;3.90;;;31.00;52.30;;;;;;5065419;28;20483;-62
2023/08/17 10:08:21;;;;;;;6.60;3.78;;;31.10;51.60;;;;;;5068873;28;20039;-63
2023/08/17 10:10:47;;;;;;;6.60;3.88;;;31.20;52.40;;;;;;5057568;28;20029;-63
2023/08/17 10:13:19;;;;;;;5.43;3.90;;;31.40;52.10;;;;;;5062387;28;20039;-63
2023/08/17 10:16:01;;;;;;;4.70;4.20;;;31.50;51.50;;;;;;5064208;28;20029;-62
2023/08/17 10:18:41;;;;;;;6.85;3.90;;;31.60;50.70;;;;;;5071795;28;20044;-62
2023/08/17 10:21:16;;;;;;;8.02;4.10;;;31.70;50.80;;;;;;5068844;28;20024;-65
2023/08/17 10:23:44;;;;;;;18.73;4.22;;;31.80;50.30;;;;;;5069488;28;20035;-62
2023/08/17 10:26:10;;;;;;;4.22;3.55;;;31.90;50.60;;;;;;5065322;28;20408;-63
2023/08/17 10:28:38;;;;;;;7.75;3.60;;;31.90;50.30;;;;;;4967591;28;20487;-63
2023/08/17 10:31:04;;;;;;;5.50;4.00;;;32.00;50.00;;;;;;5065166;28;20028;-63
2023/08/17 10:33:30;;;;;;;5.72;3.63;;;32.00;49.30;;;;;;5068244;28;20032;-63
2023/08/17 10:35:56;;;;;;;5.68;3.60;;;32.00;49.90;;;;;;5072172;28;20039;-64
2023/08/17 10:38:22;;;;;;;4.35;3.83;;;32.00;50.50;;;;;;5099060;27;20038;-63
2023/08/17 10:41:14;;;;;;;7.18;3.42;;;32.10;50.70;;;;;;5069099;28;20028;-64
2023/08/17 10:44:07;;;;;;;4.18;3.42;;;32.20;51.80;;;;;;5065670;28;20503;-63
2023/08/17 10:46:39;;;;;;;6.10;3.30;;;32.40;50.50;;;;;;5068709;28;20566;-63
2023/08/17 10:49:07;;;;;;;8.43;3.60;;;32.60;50.00;;;;;;5073138;28;20356;-63
2023/08/17 10:51:34;;;;;;;8.85;4.03;;;32.70;49.90;;;;;;5070573;28;20032;-63
2023/08/17 10:54:03;;;;;;;5.68;3.60;;;32.70;49.10;;;;;;5064392;28;20028;-64
2023/08/17 10:56:30;;;;;;;5.57;3.80;;;32.80;48.60;;;;;;5064859;28;20094;-64
2023/08/17 10:59:02;;;;;;;4.05;3.28;;;32.80;49.20;;;;;;5065032;28;20020;-63
2023/08/17 11:01:41;;;;;;;7.32;3.15;;;32.90;47.10;;;;;;5066180;28;20502;-62
2023/08/17 11:04:12;;;;;;;5.30;3.13;;;32.90;47.30;;;;;;5066685;28;20025;-63
2023/08/17 11:06:38;;;;;;;4.78;3.25;;;32.90;47.90;;;;;;5066728;28;20100;-64
2023/08/17 11:09:07;;;;;;;6.25;3.22;;;33.00;48.90;;;;;;5069168;28;20072;-62
2023/08/17 11:11:33;;;;;;;5.53;3.55;;;33.10;48.90;;;;;;5071184;28;20098;-63
2023/08/17 11:13:58;;;;;;;7.50;3.80;;;33.20;48.20;;;;;;5067931;28;20135;-64
2023/08/17 11:16:25;;;;;;;3.92;3.05;;;33.20;48.20;;;;;;5068867;28;20361;-64
2023/08/17 11:18:51;;;;;;;4.15;2.55;;;33.40;47.60;;;;;;5056514;28;20036;-63
2023/08/17 11:21:19;;;;;;;4.63;2.80;;;33.50;47.10;;;;;;5054524;28;20471;-63
2023/08/17 11:23:45;;;;;;;6.53;3.15;;;33.60;46.20;;;;;;5067536;28;20047;-64
2023/08/17 11:26:11;;;;;;;4.82;3.20;;;33.70;45.00;;;;;;5060673;28;20024;-62
2023/08/17 11:28:38;;;;;;;7.82;2.83;;;33.70;45.80;;;;;;5064676;28;20028;-64
2023/08/17 11:31:06;;;;;;;3.65;3.20;;;33.70;46.40;;;;;;5073209;28;20086;-63
2023/08/17 11:33:33;;;;;;;5.78;2.80;;;33.80;45.20;;;;;;5066431;28;20110;-63
2023/08/17 11:36:01;;;;;;;7.80;2.70;;;33.90;45.70;;;;;;5066925;28;20581;-63
2023/08/17 11:38:31;;;;;;;5.65;2.88;;;33.90;45.10;;;;;;5064756;28;20052;-63
2023/08/17 11:40:58;;;;;;;3.42;2.65;;;34.00;44.60;;;;;;5063072;28;20041;-64
2023/08/17 11:43:25;;;;;;;5.07;2.30;;;34.10;44.50;;;;;;5059274;28;20029;-62
2023/08/17 11:45:51;;;;;;;2.97;2.67;;;34.30;45.00;;;;;;5066650;28;20035;-62
2023/08/17 11:48:19;;;;;;;5.85;2.63;;;34.40;44.60;;;;;;5062666;28;20025;-63
2023/08/17 11:50:45;;;;;;;6.88;2.55;;;34.50;44.40;;;;;;5060926;28;20096;-63
2023/08/17 11:53:11;;;;;;;3.70;2.72;;;34.60;44.00;;;;;;5060801;28;20498;-63
2023/08/17 11:55:37;;;;;;;4.53;2.50;;;34.70;43.40;;;;;;5060674;28;20031;-62
2023/08/17 11:58:03;;;;;;;4.00;2.83;;;34.80;43.30;;;;;;5062585;28;20490;-63
2023/08/17 12:00:35;;;;;;;4.88;2.63;;;34.80;42.90;;;;;;5067395;28;20036;-64
2023/08/17 12:03:02;;;;;;;6.82;2.55;;;34.90;42.90;;;;;;5073162;28;20035;-63
2023/08/17 12:05:30;;;;;;;3.75;2.45;;;34.90;43.50;;;;;;5066545;28;20039;-62
2023/08/17 12:07:56;;;;;;;5.28;2.90;;;35.00;43.60;;;;;;5071708;28;20510;-62
2023/08/17 12:10:22;;;;;;;5.60;2.60;;;35.00;43.60;;;;;;5064084;28;20132;-64
2023/08/17 12:12:48;;;;;;;3.55;2.58;;;35.10;43.00;;;;;;5060644;28;20021;-63
2023/08/17 12:15:16;;;;;;;4.65;2.60;;;35.10;42.50;;;;;;5071812;28;20051;-63
2023/08/17 12:17:47;;;;;;;4.25;2.60;;;35.20;43.00;;;;;;5073060;28;20036;-63
2023/08/17 12:20:17;;;;;;;7.15;2.70;;;35.20;42.50;;;;;;5059150;28;20028;-63
2023/08/17 12:22:43;;;;;;;3.97;2.53;;;35.20;42.00;;;;;;5060412;28;20053;-63
2023/08/17 12:25:09;;;;;;;5.97;2.42;;;35.30;41.70;;;;;;5063518;28;20060;-63
2023/08/17 12:27:35;;;;;;;5.25;2.95;;;35.30;42.10;;;;;;5066139;28;20070;-63
2023/08/17 12:30:01;;;;;;;5.00;2.60;;;35.40;41.80;;;;;;5061035;28;20020;-64
2023/08/17 12:32:26;;;;;;;4.47;2.30;;;35.40;41.80;;;;;;5067896;28;20035;-63
2023/08/17 12:34:52;;;;;;;4.55;2.25;;;35.50;42.00;;;;;;5064559;28;20503;-63
2023/08/17 12:37:20;;;;;;;2.72;2.40;;;35.60;41.00;;;;;;5068622;28;20123;-64
2023/08/17 12:39:47;;;;;;;3.83;2.60;;;35.70;40.30;;;;;;5056109;28;20027;-63
2023/08/17 12:42:13;;;;;;;5.28;2.67;;;35.80;40.60;;;;;;5056473;28;20028;-64
2023/08/17 12:44:40;;;;;;;5.57;2.47;;;35.80;39.90;;;;;;5062754;28;20020;-63